sensor_id;sensor_type;location;lat;lon;timestamp;temperature;humidity
19799;DHT22;10059;59.850;10.454;2023-07-29T00:01:19;13.60;99.90
19799;DHT22;10059;59.850;10.454;2023-07-29T00:03:45;13.70;99.90
19799;DHT22;10059;59.850;10.454;2023-07-29T00:06:12;13.60;99.90
19799;DHT22;10059;59.850;10.454;2023-07-29T00:08:39;13.70;99.90
19799;DHT22;10059;59.850;10.454;2023-07-29T00:11:06;13.80;99.90
19799;DHT22;10059;59.850;10.454;2023-07-29T00:13:33;13.90;99.90
19799;DHT22;10059;59.850;10.454;2023-07-29T00:16:01;14.00;99.90
19799;DHT22;10059;59.850;10.454;2023-07-29T00:18:28;14.10;99.90
19799;DHT22;10059;59.850;10.454;2023-07-29T00:20:55;14.20;99.90
19799;DHT22;10059;59.850;10.454;2023-07-29T00:23:23;14.20;99.90
19799;DHT22;10059;59.850;10.454;2023-07-29T00:25:50;14.40;99.90
19799;DHT22;10059;59.850;10.454;2023-07-29T00:28:17;14.40;99.90
19799;DHT22;10059;59.850;10.454;2023-07-29T00:30:43;14.60;99.90
19799;DHT22;10059;59.850;10.454;2023-07-29T00:33:11;14.60;99.90
19799;DHT22;10059;59.850;10.454;2023-07-29T00:35:38;14.60;99.90
19799;DHT22;10059;59.850;10.454;2023-07-29T00:38:05;14.60;99.90
19799;DHT22;10059;59.850;10.454;2023-07-29T00:40:35;14.60;99.90
19799;DHT22;10059;59.850;10.454;2023-07-29T00:43:02;14.60;99.90
19799;DHT22;10059;59.850;10.454;2023-07-29T00:45:29;14.60;99.90
19799;DHT22;10059;59.850;10.454;2023-07-29T00:47:57;14.60;99.90
19799;DHT22;10059;59.850;10.454;2023-07-29T00:50:25;14.80;99.90
19799;DHT22;10059;59.850;10.454;2023-07-29T00:52:54;14.90;99.90
19799;DHT22;10059;59.850;10.454;2023-07-29T00:55:21;14.90;99.90
19799;DHT22;10059;59.850;10.454;2023-07-29T00:57:48;14.90;99.90
19799;DHT22;10059;59.850;10.454;2023-07-29T01:00:17;14.80;99.90
19799;DHT22;10059;59.850;10.454;2023-07-29T01:02:44;14.80;99.90
19799;DHT22;10059;59.850;10.454;2023-07-29T01:05:13;14.80;99.90
19799;DHT22;10059;59.850;10.454;2023-07-29T01:07:47;14.90;99.90
19799;DHT22;10059;59.850;10.454;2023-07-29T01:10:21;14.80;99.90
19799;DHT22;10059;59.850;10.454;2023-07-29T01:12:54;15.00;99.90
19799;DHT22;10059;59.850;10.454;2023-07-29T01:15:28;15.00;99.90
19799;DHT22;10059;59.850;10.454;2023-07-29T01:18:05;14.90;99.90
19799;DHT22;10059;59.850;10.454;2023-07-29T01:20:34;14.90;99.90
19799;DHT22;10059;59.850;10.454;2023-07-29T01:23:05;14.80;99.90
19799;DHT22;10059;59.850;10.454;2023-07-29T01:25:33;14.90;99.90
19799;DHT22;10059;59.850;10.454;2023-07-29T01:28:00;14.90;99.90
19799;DHT22;10059;59.850;10.454;2023-07-29T01:30:30;14.90;99.90
19799;DHT22;10059;59.850;10.454;2023-07-29T01:33:01;14.90;99.90
19799;DHT22;10059;59.850;10.454;2023-07-29T01:35:33;15.00;99.90
19799;DHT22;10059;59.850;10.454;2023-07-29T01:38:04;14.90;99.90
19799;DHT22;10059;59.850;10.454;2023-07-29T01:40:33;14.90;99.90
19799;DHT22;10059;59.850;10.454;2023-07-29T01:43:00;15.00;99.90
19799;DHT22;10059;59.850;10.454;2023-07-29T01:45:28;15.00;99.90
19799;DHT22;10059;59.850;10.454;2023-07-29T01:47:57;15.00;99.90
19799;DHT22;10059;59.850;10.454;2023-07-29T01:50:24;15.00;99.90
19799;DHT22;10059;59.850;10.454;2023-07-29T01:52:50;14.90;99.90
19799;DHT22;10059;59.850;10.454;2023-07-29T01:55:17;14.90;99.90
19799;DHT22;10059;59.850;10.454;2023-07-29T01:57:45;14.90;99.90
19799;DHT22;10059;59.850;10.454;2023-07-29T02:00:12;15.00;99.90
19799;DHT22;10059;59.850;10.454;2023-07-29T02:02:39;15.10;99.90
19799;DHT22;10059;59.850;10.454;2023-07-29T02:05:06;15.20;99.90
19799;DHT22;10059;59.850;10.454;2023-07-29T02:07:33;15.20;99.90
19799;DHT22;10059;59.850;10.454;2023-07-29T02:10:00;15.20;99.90
19799;DHT22;10059;59.850;10.454;2023-07-29T02:12:27;15.20;99.90
19799;DHT22;10059;59.850;10.454;2023-07-29T02:14:55;15.20;99.90
19799;DHT22;10059;59.850;10.454;2023-07-29T02:17:22;15.20;99.90
19799;DHT22;10059;59.850;10.454;2023-07-29T02:19:49;15.20;99.90
19799;DHT22;10059;59.850;10.454;2023-07-29T02:22:17;15.00;99.90
19799;DHT22;10059;59.850;10.454;2023-07-29T02:24:44;15.10;99.90
19799;DHT22;10059;59.850;10.454;2023-07-29T02:27:12;15.20;99.90
19799;DHT22;10059;59.850;10.454;2023-07-29T02:29:38;15.30;99.90
19799;DHT22;10059;59.850;10.454;2023-07-29T02:32:07;15.30;99.90
19799;DHT22;10059;59.850;10.454;2023-07-29T02:34:33;15.10;99.90
19799;DHT22;10059;59.850;10.454;2023-07-29T02:37:00;14.90;99.90
19799;DHT22;10059;59.850;10.454;2023-07-29T02:39:27;14.80;99.90
19799;DHT22;10059;59.850;10.454;2023-07-29T02:41:54;14.90;99.90
19799;DHT22;10059;59.850;10.454;2023-07-29T02:44:21;14.90;99.90
19799;DHT22;10059;59.850;10.454;2023-07-29T02:46:48;14.80;99.90
19799;DHT22;10059;59.850;10.454;2023-07-29T02:49:16;14.80;99.90
19799;DHT22;10059;59.850;10.454;2023-07-29T02:51:43;14.80;99.90
19799;DHT22;10059;59.850;10.454;2023-07-29T02:54:10;14.90;99.90
19799;DHT22;10059;59.850;10.454;2023-07-29T02:56:36;15.00;99.90
19799;DHT22;10059;59.850;10.454;2023-07-29T02:59:03;15.20;99.90
19799;DHT22;10059;59.850;10.454;2023-07-29T03:01:30;15.20;99.90
19799;DHT22;10059;59.850;10.454;2023-07-29T03:03:57;15.20;99.90
19799;DHT22;10059;59.850;10.454;2023-07-29T03:06:25;15.20;99.90
19799;DHT22;10059;59.850;10.454;2023-07-29T03:08:52;15.20;99.90
19799;DHT22;10059;59.850;10.454;2023-07-29T03:11:19;15.20;99.90
19799;DHT22;10059;59.850;10.454;2023-07-29T03:13:45;15.20;99.90
19799;DHT22;10059;59.850;10.454;2023-07-29T03:16:14;15.30;99.90
19799;DHT22;10059;59.850;10.454;2023-07-29T03:18:42;15.40;99.90
19799;DHT22;10059;59.850;10.454;2023-07-29T03:21:09;15.40;99.90
19799;DHT22;10059;59.850;10.454;2023-07-29T03:23:38;15.50;99.90
19799;DHT22;10059;59.850;10.454;2023-07-29T03:26:05;15.50;99.90
19799;DHT22;10059;59.850;10.454;2023-07-29T03:28:37;15.40;99.90
19799;DHT22;10059;59.850;10.454;2023-07-29T03:31:04;15.40;99.90
19799;DHT22;10059;59.850;10.454;2023-07-29T03:33:31;15.40;99.90
19799;DHT22;10059;59.850;10.454;2023-07-29T03:35:58;15.40;99.90
19799;DHT22;10059;59.850;10.454;2023-07-29T03:38:24;15.40;99.90
19799;DHT22;10059;59.850;10.454;2023-07-29T03:40:53;15.40;99.90
19799;DHT22;10059;59.850;10.454;2023-07-29T03:43:20;15.60;99.90
19799;DHT22;10059;59.850;10.454;2023-07-29T03:45:47;15.80;99.90
19799;DHT22;10059;59.850;10.454;2023-07-29T03:48:13;15.80;99.90
19799;DHT22;10059;59.850;10.454;2023-07-29T03:50:40;16.00;99.90
19799;DHT22;10059;59.850;10.454;2023-07-29T03:53:07;16.00;99.90
19799;DHT22;10059;59.850;10.454;2023-07-29T03:55:35;16.00;99.90
19799;DHT22;10059;59.850;10.454;2023-07-29T03:58:03;16.00;99.90
19799;DHT22;10059;59.850;10.454;2023-07-29T04:00:30;16.10;99.90
19799;DHT22;10059;59.850;10.454;2023-07-29T04:02:57;16.20;99.90
19799;DHT22;10059;59.850;10.454;2023-07-29T04:05:24;16.20;99.90
19799;DHT22;10059;59.850;10.454;2023-07-29T04:07:51;16.20;99.90
19799;DHT22;10059;59.850;10.454;2023-07-29T04:10:19;16.20;99.90
19799;DHT22;10059;59.850;10.454;2023-07-29T04:12:46;16.30;99.90
19799;DHT22;10059;59.850;10.454;2023-07-29T04:15:14;16.20;99.90
19799;DHT22;10059;59.850;10.454;2023-07-29T04:17:41;16.20;99.90
19799;DHT22;10059;59.850;10.454;2023-07-29T04:20:09;16.20;99.90
19799;DHT22;10059;59.850;10.454;2023-07-29T04:22:36;16.00;99.90
19799;DHT22;10059;59.850;10.454;2023-07-29T04:25:03;16.00;99.90
19799;DHT22;10059;59.850;10.454;2023-07-29T04:27:30;16.10;99.90
19799;DHT22;10059;59.850;10.454;2023-07-29T04:29:57;16.00;99.90
19799;DHT22;10059;59.850;10.454;2023-07-29T04:32:25;16.00;99.90
19799;DHT22;10059;59.850;10.454;2023-07-29T04:34:52;16.10;99.90
19799;DHT22;10059;59.850;10.454;2023-07-29T04:37:19;16.20;99.90
19799;DHT22;10059;59.850;10.454;2023-07-29T04:39:46;16.20;99.90
19799;DHT22;10059;59.850;10.454;2023-07-29T04:42:13;16.20;99.90
19799;DHT22;10059;59.850;10.454;2023-07-29T04:44:40;16.20;99.90
19799;DHT22;10059;59.850;10.454;2023-07-29T04:47:07;16.20;99.90
19799;DHT22;10059;59.850;10.454;2023-07-29T04:49:36;16.20;99.90
19799;DHT22;10059;59.850;10.454;2023-07-29T04:52:03;16.10;99.90
19799;DHT22;10059;59.850;10.454;2023-07-29T04:54:29;16.00;99.90
19799;DHT22;10059;59.850;10.454;2023-07-29T04:56:56;16.00;99.90
19799;DHT22;10059;59.850;10.454;2023-07-29T04:59:23;16.20;99.90
19799;DHT22;10059;59.850;10.454;2023-07-29T05:01:50;16.20;99.90
19799;DHT22;10059;59.850;10.454;2023-07-29T05:04:17;16.20;99.90
19799;DHT22;10059;59.850;10.454;2023-07-29T05:06:45;16.10;99.90
19799;DHT22;10059;59.850;10.454;2023-07-29T05:09:15;16.00;99.90
19799;DHT22;10059;59.850;10.454;2023-07-29T05:11:42;16.20;99.90
19799;DHT22;10059;59.850;10.454;2023-07-29T05:14:11;16.40;99.90
19799;DHT22;10059;59.850;10.454;2023-07-29T05:16:37;16.50;99.90
19799;DHT22;10059;59.850;10.454;2023-07-29T05:19:04;16.60;99.90
19799;DHT22;10059;59.850;10.454;2023-07-29T05:21:31;16.60;99.90
19799;DHT22;10059;59.850;10.454;2023-07-29T05:23:59;16.60;99.90
19799;DHT22;10059;59.850;10.454;2023-07-29T05:26:26;16.60;99.90
19799;DHT22;10059;59.850;10.454;2023-07-29T05:28:53;16.70;99.90
19799;DHT22;10059;59.850;10.454;2023-07-29T05:31:20;16.80;99.90
19799;DHT22;10059;59.850;10.454;2023-07-29T05:33:47;16.80;99.90
19799;DHT22;10059;59.850;10.454;2023-07-29T05:36:14;16.60;99.90
19799;DHT22;10059;59.850;10.454;2023-07-29T05:38:40;16.50;99.90
19799;DHT22;10059;59.850;10.454;2023-07-29T05:41:09;16.40;99.90
19799;DHT22;10059;59.850;10.454;2023-07-29T05:43:35;16.50;99.90
19799;DHT22;10059;59.850;10.454;2023-07-29T05:46:02;16.70;99.90
19799;DHT22;10059;59.850;10.454;2023-07-29T05:48:29;16.50;99.90
19799;DHT22;10059;59.850;10.454;2023-07-29T05:50:56;16.70;99.90
19799;DHT22;10059;59.850;10.454;2023-07-29T05:53:23;17.00;99.90
19799;DHT22;10059;59.850;10.454;2023-07-29T05:55:49;17.20;99.90
19799;DHT22;10059;59.850;10.454;2023-07-29T05:58:18;17.40;99.90
19799;DHT22;10059;59.850;10.454;2023-07-29T06:00:45;17.60;99.90
19799;DHT22;10059;59.850;10.454;2023-07-29T06:03:11;17.80;99.90
19799;DHT22;10059;59.850;10.454;2023-07-29T06:05:39;17.70;99.90
19799;DHT22;10059;59.850;10.454;2023-07-29T06:08:06;18.10;99.90
19799;DHT22;10059;59.850;10.454;2023-07-29T06:10:34;18.40;99.90
19799;DHT22;10059;59.850;10.454;2023-07-29T06:13:01;18.40;99.90
19799;DHT22;10059;59.850;10.454;2023-07-29T06:15:30;18.40;99.90
19799;DHT22;10059;59.850;10.454;2023-07-29T06:17:58;18.30;99.90
19799;DHT22;10059;59.850;10.454;2023-07-29T06:20:25;18.00;99.90
19799;DHT22;10059;59.850;10.454;2023-07-29T06:22:52;17.70;99.90
19799;DHT22;10059;59.850;10.454;2023-07-29T06:25:18;17.70;99.90
19799;DHT22;10059;59.850;10.454;2023-07-29T06:27:45;17.60;99.90
19799;DHT22;10059;59.850;10.454;2023-07-29T06:30:12;17.60;99.90
19799;DHT22;10059;59.850;10.454;2023-07-29T06:32:40;17.50;99.90
19799;DHT22;10059;59.850;10.454;2023-07-29T06:35:07;17.40;99.90
19799;DHT22;10059;59.850;10.454;2023-07-29T06:37:34;17.20;99.90
19799;DHT22;10059;59.850;10.454;2023-07-29T06:40:01;17.00;99.90
19799;DHT22;10059;59.850;10.454;2023-07-29T06:42:28;17.10;99.90
19799;DHT22;10059;59.850;10.454;2023-07-29T06:44:55;17.10;99.90
19799;DHT22;10059;59.850;10.454;2023-07-29T06:47:22;17.10;99.90
19799;DHT22;10059;59.850;10.454;2023-07-29T06:49:50;17.20;99.90
19799;DHT22;10059;59.850;10.454;2023-07-29T06:52:17;17.20;99.90
19799;DHT22;10059;59.850;10.454;2023-07-29T06:54:43;17.10;99.90
19799;DHT22;10059;59.850;10.454;2023-07-29T06:57:10;17.20;99.90
19799;DHT22;10059;59.850;10.454;2023-07-29T06:59:37;17.10;99.90
19799;DHT22;10059;59.850;10.454;2023-07-29T07:02:05;17.10;99.90
19799;DHT22;10059;59.850;10.454;2023-07-29T07:04:32;16.90;99.90
19799;DHT22;10059;59.850;10.454;2023-07-29T07:07:00;16.90;99.90
19799;DHT22;10059;59.850;10.454;2023-07-29T07:09:27;17.20;99.90
19799;DHT22;10059;59.850;10.454;2023-07-29T07:11:53;17.30;99.90
19799;DHT22;10059;59.850;10.454;2023-07-29T07:14:20;17.50;99.90
19799;DHT22;10059;59.850;10.454;2023-07-29T07:16:47;17.30;99.90
19799;DHT22;10059;59.850;10.454;2023-07-29T07:19:14;17.30;99.90
19799;DHT22;10059;59.850;10.454;2023-07-29T07:21:40;17.40;99.90
19799;DHT22;10059;59.850;10.454;2023-07-29T07:24:09;17.50;99.90
19799;DHT22;10059;59.850;10.454;2023-07-29T07:26:35;17.30;99.90
19799;DHT22;10059;59.850;10.454;2023-07-29T07:29:02;17.30;99.90
19799;DHT22;10059;59.850;10.454;2023-07-29T07:31:33;17.70;99.90
19799;DHT22;10059;59.850;10.454;2023-07-29T07:34:00;18.40;99.90
19799;DHT22;10059;59.850;10.454;2023-07-29T07:36:27;18.80;99.90
19799;DHT22;10059;59.850;10.454;2023-07-29T07:38:54;18.80;99.90
19799;DHT22;10059;59.850;10.454;2023-07-29T07:41:22;19.10;99.90
19799;DHT22;10059;59.850;10.454;2023-07-29T07:43:49;18.80;99.90
19799;DHT22;10059;59.850;10.454;2023-07-29T07:46:16;18.60;99.90
19799;DHT22;10059;59.850;10.454;2023-07-29T07:48:43;18.80;99.90
19799;DHT22;10059;59.850;10.454;2023-07-29T07:51:10;18.60;99.90
19799;DHT22;10059;59.850;10.454;2023-07-29T07:53:37;18.60;99.90
19799;DHT22;10059;59.850;10.454;2023-07-29T07:56:04;18.80;99.90
19799;DHT22;10059;59.850;10.454;2023-07-29T07:58:33;18.70;99.90
19799;DHT22;10059;59.850;10.454;2023-07-29T08:01:03;18.80;99.90
19799;DHT22;10059;59.850;10.454;2023-07-29T08:03:30;19.10;99.90
19799;DHT22;10059;59.850;10.454;2023-07-29T08:05:57;18.90;99.90
19799;DHT22;10059;59.850;10.454;2023-07-29T08:08:25;18.80;99.90
19799;DHT22;10059;59.850;10.454;2023-07-29T08:10:52;18.80;99.90
19799;DHT22;10059;59.850;10.454;2023-07-29T08:13:20;18.70;99.90
19799;DHT22;10059;59.850;10.454;2023-07-29T08:15:49;19.00;99.90
19799;DHT22;10059;59.850;10.454;2023-07-29T08:18:16;19.10;99.90
19799;DHT22;10059;59.850;10.454;2023-07-29T08:20:51;19.10;99.90
19799;DHT22;10059;59.850;10.454;2023-07-29T08:23:18;19.10;99.90
19799;DHT22;10059;59.850;10.454;2023-07-29T08:25:49;19.30;99.90
19799;DHT22;10059;59.850;10.454;2023-07-29T08:28:16;19.30;99.90
19799;DHT22;10059;59.850;10.454;2023-07-29T08:30:43;19.30;99.90
19799;DHT22;10059;59.850;10.454;2023-07-29T08:33:11;19.50;99.90
19799;DHT22;10059;59.850;10.454;2023-07-29T08:35:38;20.00;99.90
19799;DHT22;10059;59.850;10.454;2023-07-29T08:38:04;20.20;99.90
19799;DHT22;10059;59.850;10.454;2023-07-29T08:40:32;20.20;99.90
19799;DHT22;10059;59.850;10.454;2023-07-29T08:43:04;20.00;99.90
19799;DHT22;10059;59.850;10.454;2023-07-29T08:45:34;19.80;99.90
19799;DHT22;10059;59.850;10.454;2023-07-29T08:48:02;19.90;99.90
19799;DHT22;10059;59.850;10.454;2023-07-29T08:50:33;20.30;99.90
19799;DHT22;10059;59.850;10.454;2023-07-29T08:53:03;20.40;99.90
19799;DHT22;10059;59.850;10.454;2023-07-29T08:55:31;20.80;99.90
19799;DHT22;10059;59.850;10.454;2023-07-29T08:57:58;20.80;99.90
19799;DHT22;10059;59.850;10.454;2023-07-29T09:00:27;20.90;99.90
19799;DHT22;10059;59.850;10.454;2023-07-29T09:02:54;21.00;99.90
19799;DHT22;10059;59.850;10.454;2023-07-29T09:05:23;20.80;99.90
19799;DHT22;10059;59.850;10.454;2023-07-29T09:07:52;20.90;99.90
19799;DHT22;10059;59.850;10.454;2023-07-29T09:10:21;21.30;99.90
19799;DHT22;10059;59.850;10.454;2023-07-29T09:12:49;22.00;99.90
19799;DHT22;10059;59.850;10.454;2023-07-29T09:15:27;22.60;99.90
19799;DHT22;10059;59.850;10.454;2023-07-29T09:17:55;21.80;99.90
19799;DHT22;10059;59.850;10.454;2023-07-29T09:20:25;21.80;99.90
19799;DHT22;10059;59.850;10.454;2023-07-29T09:22:55;21.60;99.90
19799;DHT22;10059;59.850;10.454;2023-07-29T09:25:25;22.00;99.90
19799;DHT22;10059;59.850;10.454;2023-07-29T09:27:52;22.00;99.90
19799;DHT22;10059;59.850;10.454;2023-07-29T09:30:19;22.80;99.90
19799;DHT22;10059;59.850;10.454;2023-07-29T09:32:46;23.30;99.90
19799;DHT22;10059;59.850;10.454;2023-07-29T09:35:13;23.00;99.90
19799;DHT22;10059;59.850;10.454;2023-07-29T09:37:40;22.80;99.90
19799;DHT22;10059;59.850;10.454;2023-07-29T09:40:14;22.80;99.90
19799;DHT22;10059;59.850;10.454;2023-07-29T09:42:48;22.90;99.90
19799;DHT22;10059;59.850;10.454;2023-07-29T09:45:20;21.80;99.90
19799;DHT22;10059;59.850;10.454;2023-07-29T09:47:47;21.00;99.90
19799;DHT22;10059;59.850;10.454;2023-07-29T09:50:14;20.90;99.90
19799;DHT22;10059;59.850;10.454;2023-07-29T09:52:41;21.30;99.90
19799;DHT22;10059;59.850;10.454;2023-07-29T09:55:11;21.60;99.90
19799;DHT22;10059;59.850;10.454;2023-07-29T09:57:39;21.70;99.90
19799;DHT22;10059;59.850;10.454;2023-07-29T10:00:07;21.50;99.90
19799;DHT22;10059;59.850;10.454;2023-07-29T10:02:37;21.80;99.90
19799;DHT22;10059;59.850;10.454;2023-07-29T10:05:05;22.00;99.90
19799;DHT22;10059;59.850;10.454;2023-07-29T10:07:33;21.90;99.90
19799;DHT22;10059;59.850;10.454;2023-07-29T10:10:02;21.80;99.90
19799;DHT22;10059;59.850;10.454;2023-07-29T10:12:30;22.10;99.90
19799;DHT22;10059;59.850;10.454;2023-07-29T10:14:59;22.30;99.90
19799;DHT22;10059;59.850;10.454;2023-07-29T10:17:27;21.90;99.90
19799;DHT22;10059;59.850;10.454;2023-07-29T10:19:55;21.90;99.90
19799;DHT22;10059;59.850;10.454;2023-07-29T10:22:25;22.20;99.90
19799;DHT22;10059;59.850;10.454;2023-07-29T10:24:54;22.80;99.90
19799;DHT22;10059;59.850;10.454;2023-07-29T10:27:24;22.50;99.90
19799;DHT22;10059;59.850;10.454;2023-07-29T10:29:55;22.90;99.90
19799;DHT22;10059;59.850;10.454;2023-07-29T10:32:25;22.60;99.90
19799;DHT22;10059;59.850;10.454;2023-07-29T10:34:53;22.40;99.90
19799;DHT22;10059;59.850;10.454;2023-07-29T10:37:20;22.40;99.90
19799;DHT22;10059;59.850;10.454;2023-07-29T10:39:54;22.90;99.90
19799;DHT22;10059;59.850;10.454;2023-07-29T10:42:21;23.60;99.90
19799;DHT22;10059;59.850;10.454;2023-07-29T10:44:50;23.70;99.90
19799;DHT22;10059;59.850;10.454;2023-07-29T10:47:20;23.60;99.90
19799;DHT22;10059;59.850;10.454;2023-07-29T10:49:50;23.70;99.90
19799;DHT22;10059;59.850;10.454;2023-07-29T10:52:29;23.60;99.90
19799;DHT22;10059;59.850;10.454;2023-07-29T10:54:56;23.10;99.90
19799;DHT22;10059;59.850;10.454;2023-07-29T10:57:31;23.30;99.90
19799;DHT22;10059;59.850;10.454;2023-07-29T10:59:59;23.80;99.90
19799;DHT22;10059;59.850;10.454;2023-07-29T11:02:30;24.00;99.90
19799;DHT22;10059;59.850;10.454;2023-07-29T11:04:58;24.20;99.90
19799;DHT22;10059;59.850;10.454;2023-07-29T11:07:26;24.20;99.90
19799;DHT22;10059;59.850;10.454;2023-07-29T11:10:00;24.10;99.90
19799;DHT22;10059;59.850;10.454;2023-07-29T11:12:44;24.50;99.90
19799;DHT22;10059;59.850;10.454;2023-07-29T11:15:18;24.50;99.90
19799;DHT22;10059;59.850;10.454;2023-07-29T11:17:48;24.70;99.90
19799;DHT22;10059;59.850;10.454;2023-07-29T11:20:17;24.90;99.90
19799;DHT22;10059;59.850;10.454;2023-07-29T11:22:44;24.90;99.90
19799;DHT22;10059;59.850;10.454;2023-07-29T11:25:13;24.60;99.90
19799;DHT22;10059;59.850;10.454;2023-07-29T11:27:41;24.50;99.90
19799;DHT22;10059;59.850;10.454;2023-07-29T11:30:09;24.40;99.90
19799;DHT22;10059;59.850;10.454;2023-07-29T11:32:37;24.20;99.90
19799;DHT22;10059;59.850;10.454;2023-07-29T11:35:07;24.60;99.90
19799;DHT22;10059;59.850;10.454;2023-07-29T11:37:35;25.10;99.90
19799;DHT22;10059;59.850;10.454;2023-07-29T11:40:03;24.60;99.90
19799;DHT22;10059;59.850;10.454;2023-07-29T11:42:32;24.60;99.90
19799;DHT22;10059;59.850;10.454;2023-07-29T11:44:59;24.70;99.90
19799;DHT22;10059;59.850;10.454;2023-07-29T11:47:26;24.60;99.90
19799;DHT22;10059;59.850;10.454;2023-07-29T11:49:53;24.40;99.90
19799;DHT22;10059;59.850;10.454;2023-07-29T11:52:22;24.40;99.90
19799;DHT22;10059;59.850;10.454;2023-07-29T11:54:49;24.00;99.90
19799;DHT22;10059;59.850;10.454;2023-07-29T11:57:16;24.20;99.90
19799;DHT22;10059;59.850;10.454;2023-07-29T11:59:44;24.80;99.90
19799;DHT22;10059;59.850;10.454;2023-07-29T12:02:12;25.00;99.90
19799;DHT22;10059;59.850;10.454;2023-07-29T12:04:40;25.10;99.90
19799;DHT22;10059;59.850;10.454;2023-07-29T12:07:08;25.30;99.90
19799;DHT22;10059;59.850;10.454;2023-07-29T12:09:37;25.20;99.90
19799;DHT22;10059;59.850;10.454;2023-07-29T12:12:05;25.20;99.90
19799;DHT22;10059;59.850;10.454;2023-07-29T12:14:32;24.80;99.90
19799;DHT22;10059;59.850;10.454;2023-07-29T12:17:00;25.00;99.90
19799;DHT22;10059;59.850;10.454;2023-07-29T12:19:31;25.00;99.90
19799;DHT22;10059;59.850;10.454;2023-07-29T12:21:59;25.50;99.90
19799;DHT22;10059;59.850;10.454;2023-07-29T12:24:26;25.40;99.90
19799;DHT22;10059;59.850;10.454;2023-07-29T12:26:54;25.30;99.90
19799;DHT22;10059;59.850;10.454;2023-07-29T12:29:21;25.70;99.90
19799;DHT22;10059;59.850;10.454;2023-07-29T12:31:48;25.70;99.90
19799;DHT22;10059;59.850;10.454;2023-07-29T12:34:19;25.70;99.90
19799;DHT22;10059;59.850;10.454;2023-07-29T12:36:47;25.60;99.90
19799;DHT22;10059;59.850;10.454;2023-07-29T12:39:18;25.50;99.90
19799;DHT22;10059;59.850;10.454;2023-07-29T12:41:45;25.70;99.90
19799;DHT22;10059;59.850;10.454;2023-07-29T12:44:13;25.90;99.90
19799;DHT22;10059;59.850;10.454;2023-07-29T12:46:40;25.20;99.90
19799;DHT22;10059;59.850;10.454;2023-07-29T12:49:07;24.40;99.90
19799;DHT22;10059;59.850;10.454;2023-07-29T12:51:35;24.70;99.90
19799;DHT22;10059;59.850;10.454;2023-07-29T12:54:02;25.20;99.90
19799;DHT22;10059;59.850;10.454;2023-07-29T12:56:29;25.30;99.90
19799;DHT22;10059;59.850;10.454;2023-07-29T12:58:56;25.00;99.90
19799;DHT22;10059;59.850;10.454;2023-07-29T13:01:25;24.80;99.90
19799;DHT22;10059;59.850;10.454;2023-07-29T13:03:52;25.00;99.90
19799;DHT22;10059;59.850;10.454;2023-07-29T13:06:19;25.20;99.90
19799;DHT22;10059;59.850;10.454;2023-07-29T13:08:46;24.80;99.90
19799;DHT22;10059;59.850;10.454;2023-07-29T13:11:14;24.60;99.90
19799;DHT22;10059;59.850;10.454;2023-07-29T13:13:41;24.80;99.90
19799;DHT22;10059;59.850;10.454;2023-07-29T13:16:08;24.70;99.90
19799;DHT22;10059;59.850;10.454;2023-07-29T13:18:36;24.80;99.90
19799;DHT22;10059;59.850;10.454;2023-07-29T13:21:03;25.10;99.90
19799;DHT22;10059;59.850;10.454;2023-07-29T13:23:30;24.80;99.90
19799;DHT22;10059;59.850;10.454;2023-07-29T13:25:58;24.90;99.90
19799;DHT22;10059;59.850;10.454;2023-07-29T13:28:26;24.90;99.90
19799;DHT22;10059;59.850;10.454;2023-07-29T13:30:52;24.30;99.90
19799;DHT22;10059;59.850;10.454;2023-07-29T13:33:19;24.20;99.90
19799;DHT22;10059;59.850;10.454;2023-07-29T13:35:48;23.80;99.90
19799;DHT22;10059;59.850;10.454;2023-07-29T13:38:15;23.20;99.90
19799;DHT22;10059;59.850;10.454;2023-07-29T13:40:41;23.50;99.90
19799;DHT22;10059;59.850;10.454;2023-07-29T13:43:08;24.30;99.90
19799;DHT22;10059;59.850;10.454;2023-07-29T13:45:35;24.50;99.90
19799;DHT22;10059;59.850;10.454;2023-07-29T13:48:02;24.40;99.90
19799;DHT22;10059;59.850;10.454;2023-07-29T13:50:29;24.80;99.90
19799;DHT22;10059;59.850;10.454;2023-07-29T13:52:57;25.00;99.90
19799;DHT22;10059;59.850;10.454;2023-07-29T13:55:24;25.00;99.90
19799;DHT22;10059;59.850;10.454;2023-07-29T13:57:52;25.00;99.90
19799;DHT22;10059;59.850;10.454;2023-07-29T14:00:19;24.70;99.90
19799;DHT22;10059;59.850;10.454;2023-07-29T14:02:46;24.00;99.90
19799;DHT22;10059;59.850;10.454;2023-07-29T14:05:13;24.00;99.90
19799;DHT22;10059;59.850;10.454;2023-07-29T14:07:39;23.80;99.90
19799;DHT22;10059;59.850;10.454;2023-07-29T14:10:08;23.70;99.90
19799;DHT22;10059;59.850;10.454;2023-07-29T14:12:35;24.10;99.90
19799;DHT22;10059;59.850;10.454;2023-07-29T14:15:03;24.30;99.90
19799;DHT22;10059;59.850;10.454;2023-07-29T14:17:31;24.10;99.90
19799;DHT22;10059;59.850;10.454;2023-07-29T14:19:57;24.10;99.90
19799;DHT22;10059;59.850;10.454;2023-07-29T14:22:24;24.20;99.90
19799;DHT22;10059;59.850;10.454;2023-07-29T14:24:51;24.40;99.90
19799;DHT22;10059;59.850;10.454;2023-07-29T14:27:19;24.60;99.90
19799;DHT22;10059;59.850;10.454;2023-07-29T14:29:46;24.50;99.90
19799;DHT22;10059;59.850;10.454;2023-07-29T14:32:13;24.60;99.90
19799;DHT22;10059;59.850;10.454;2023-07-29T14:34:40;24.60;99.90
19799;DHT22;10059;59.850;10.454;2023-07-29T14:37:06;24.30;99.90
19799;DHT22;10059;59.850;10.454;2023-07-29T14:39:33;24.50;99.90
19799;DHT22;10059;59.850;10.454;2023-07-29T14:42:00;24.80;99.90
19799;DHT22;10059;59.850;10.454;2023-07-29T14:44:28;24.60;99.90
19799;DHT22;10059;59.850;10.454;2023-07-29T14:46:55;24.70;99.90
19799;DHT22;10059;59.850;10.454;2023-07-29T14:49:22;24.50;99.90
19799;DHT22;10059;59.850;10.454;2023-07-29T14:51:49;24.50;99.90
19799;DHT22;10059;59.850;10.454;2023-07-29T14:54:16;24.40;99.90
19799;DHT22;10059;59.850;10.454;2023-07-29T14:56:42;24.00;99.90
19799;DHT22;10059;59.850;10.454;2023-07-29T14:59:09;24.00;99.90
19799;DHT22;10059;59.850;10.454;2023-07-29T15:01:37;24.20;99.90
19799;DHT22;10059;59.850;10.454;2023-07-29T15:04:04;24.30;99.90
19799;DHT22;10059;59.850;10.454;2023-07-29T15:06:31;24.40;99.90
19799;DHT22;10059;59.850;10.454;2023-07-29T15:08:58;24.50;99.90
19799;DHT22;10059;59.850;10.454;2023-07-29T15:11:25;24.40;99.90
19799;DHT22;10059;59.850;10.454;2023-07-29T15:13:52;24.00;99.90
19799;DHT22;10059;59.850;10.454;2023-07-29T15:16:18;24.30;99.90
19799;DHT22;10059;59.850;10.454;2023-07-29T15:18:47;24.50;99.90